Time,TemperatureF,DewpointF,PressureIn,WindDirection,WindDirectionDegrees,WindSpeedMPH,WindSpeedGustMPH,Humidity,HourlyPrecipIn,Conditions,Clouds,dailyrainin,SolarRadiationWatts/m^2,SoftwareType,DateUTC
2013-02-04 00:02:00,43.1,42.3,30.23,NE,49,0.0,1.0,97,0.00,,,0.00,0,Wunderground v.1.15,2013-02-04 08:02:00,
2013-02-04 00:07:00,43.1,42.3,30.22,NE,49,0.0,0.0,97,0.00,,,0.00,0,Wunderground v.1.15,2013-02-04 08:07:00,
2013-02-04 00:13:00,43.1,42.3,30.23,NE,49,0.0,1.0,97,0.00,,,0.00,0,Wunderground v.1.15,2013-02-04 08:13:00,
2013-02-04 00:18:00,43.1,42.3,30.22,NE,49,1.0,3.0,97,0.00,,,0.00,0,Wunderground v.1.15,2013-02-04 08:18:00,
2013-02-04 00:23:00,43.2,42.4,30.22,NE,49,2.0,3.0,97,0.00,,,0.00,0,Wunderground v.1.15,2013-02-04 08:23:00,
2013-02-04 00:28:00,43.2,42.4,30.22,NE,49,1.0,3.0,97,0.00,,,0.00,0,Wunderground v.1.15,2013-02-04 08:28:00,
2013-02-04 00:33:00,43.2,42.4,30.22,NE,49,1.0,2.0,97,0.00,,,0.00,0,Wunderground v.1.15,2013-02-04 08:33:00,
2013-02-04 00:38:00,43.2,42.4,30.22,NE,49,1.0,2.0,97,0.00,,,0.00,0,Wunderground v.1.15,2013-02-04 08:38:00,
2013-02-04 00:43:00,43.2,42.4,30.22,NE,49,1.0,2.0,97,0.00,,,0.00,0,Wunderground v.1.15,2013-02-04 08:43:00,
2013-02-04 00:49:00,43.2,42.4,30.22,NE,49,1.0,2.0,97,0.00,,,0.00,0,Wunderground v.1.15,2013-02-04 08:49:00,
2013-02-04 00:54:00,43.2,42.1,30.22,NE,50,2.0,3.0,96,0.00,,,0.00,0,Wunderground v.1.15,2013-02-04 08:54:00,
2013-02-04 00:59:00,43.2,42.1,30.22,NE,50,2.0,2.0,96,0.00,,,0.00,0,Wunderground v.1.15,2013-02-04 08:59:00,
2013-02-04 01:04:00,43.2,42.1,30.22,NE,50,1.0,2.0,96,0.00,,,0.00,0,Wunderground v.1.15,2013-02-04 09:04:00,
2013-02-04 01:09:00,43.2,42.1,30.22,NE,50,0.0,2.0,96,0.00,,,0.00,0,Wunderground v.1.15,2013-02-04 09:09:00,
2013-02-04 01:14:00,43.2,42.1,30.21,NE,50,0.0,0.0,96,0.00,,,0.00,0,Wunderground v.1.15,2013-02-04 09:14:00,
2013-02-04 01:19:00,43.2,42.1,30.21,NE,50,0.0,0.0,96,0.00,,,0.00,0,Wunderground v.1.15,2013-02-04 09:19:00,
2013-02-04 01:24:00,43.1,42.0,30.21,NE,50,0.0,0.0,96,0.00,,,0.00,0,Wunderground v.1.15,2013-02-04 09:24:00,
2013-02-04 01:30:00,43.1,42.0,30.22,NE,50,0.0,0.0,96,0.00,,,0.00,0,Wunderground v.1.15,2013-02-04 09:30:00,
2013-02-04 01:35:00,43.1,42.0,30.22,NE,50,1.0,2.0,96,0.00,,,0.00,0,Wunderground v.1.15,2013-02-04 09:35:00,
2013-02-04 01:40:00,43.1,42.0,30.22,NE,50,1.0,1.0,96,0.00,,,0.00,0,Wunderground v.1.15,2013-02-04 09:40:00,
2013-02-04 01:45:00,43.1,42.0,30.22,NE,50,1.0,1.0,96,0.00,,,0.00,0,Wunderground v.1.15,2013-02-04 09:45:00,
2013-02-04 01:50:00,42.9,41.8,30.22,NE,50,0.0,0.0,96,0.00,,,0.00,0,Wunderground v.1.15,2013-02-04 09:50:00,
2013-02-04 01:56:00,42.9,41.8,30.22,NE,50,0.0,0.0,96,0.00,,,0.00,0,Wunderground v.1.15,2013-02-04 09:56:00,
2013-02-04 02:01:00,42.9,41.8,30.22,NE,50,0.0,1.0,96,0.00,,,0.00,0,Wunderground v.1.15,2013-02-04 10:01:00,
2013-02-04 02:06:00,42.9,41.8,30.22,NE,50,0.0,1.0,96,0.00,,,0.00,0,Wunderground v.1.15,2013-02-04 10:06:00,
2013-02-04 02:11:00,42.9,42.1,30.22,NE,50,0.0,1.0,97,0.00,,,0.00,0,Wunderground v.1.15,2013-02-04 10:11:00,
2013-02-04 02:16:00,42.9,42.1,30.22,NE,50,0.0,1.0,97,0.00,,,0.00,0,Wunderground v.1.15,2013-02-04 10:16:00,
2013-02-04 02:22:00,42.9,42.1,30.22,NE,50,0.0,1.0,97,0.00,,,0.00,0,Wunderground v.1.15,2013-02-04 10:22:00,
2013-02-04 02:27:00,42.8,42.0,30.22,NE,50,1.0,2.0,97,0.00,,,0.00,0,Wunderground v.1.15,2013-02-04 10:27:00,
2013-02-04 02:32:00,42.8,42.0,30.22,NE,46,2.0,3.0,97,0.00,,,0.00,0,Wunderground v.1.15,2013-02-04 10:32:00,
2013-02-04 02:37:00,42.8,42.0,30.21,NE,46,1.0,3.0,97,0.00,,,0.00,0,Wunderground v.1.15,2013-02-04 10:37:00,
2013-02-04 02:42:00,42.8,42.0,30.21,NE,46,1.0,2.0,97,0.00,,,0.00,0,Wunderground v.1.15,2013-02-04 10:42:00,
2013-02-04 02:48:00,42.8,42.0,30.20,ENE,62,2.0,4.0,97,0.00,,,0.00,0,Wunderground v.1.15,2013-02-04 10:48:00,
2013-02-04 02:53:00,42.8,42.0,30.20,ENE,62,1.0,1.0,97,0.00,,,0.00,0,Wunderground v.1.15,2013-02-04 10:53:00,
2013-02-04 02:58:00,42.6,41.8,30.20,ENE,62,0.0,1.0,97,0.00,,,0.00,0,Wunderground v.1.15,2013-02-04 10:58:00,
2013-02-04 03:03:00,42.6,41.8,30.21,NNE,22,0.0,1.0,97,0.00,,,0.00,0,Wunderground v.1.15,2013-02-04 11:03:00,
2013-02-04 03:08:00,42.8,42.0,30.21,NNE,22,0.0,1.0,97,0.00,,,0.00,0,Wunderground v.1.15,2013-02-04 11:08:00,
2013-02-04 03:14:00,42.8,42.0,30.22,NNE,22,0.0,0.0,97,0.00,,,0.00,0,Wunderground v.1.15,2013-02-04 11:14:00,
2013-02-04 03:19:00,42.8,42.0,30.22,NNE,22,0.0,0.0,97,0.00,,,0.00,0,Wunderground v.1.15,2013-02-04 11:19:00,
2013-02-04 03:24:00,42.9,42.1,30.22,NNE,22,0.0,0.0,97,0.00,,,0.00,0,Wunderground v.1.15,2013-02-04 11:24:00,
2013-02-04 03:29:00,42.8,42.0,30.22,NNE,22,0.0,0.0,97,0.00,,,0.00,0,Wunderground v.1.15,2013-02-04 11:29:00,
2013-02-04 03:34:00,42.8,42.0,30.22,NNE,22,0.0,0.0,97,0.00,,,0.00,0,Wunderground v.1.15,2013-02-04 11:34:00,
2013-02-04 03:40:00,42.6,41.8,30.21,NNE,22,0.0,0.0,97,0.00,,,0.00,0,Wunderground v.1.15,2013-02-04 11:40:00,
2013-02-04 03:45:00,42.6,41.8,30.20,NNE,22,0.0,0.0,97,0.00,,,0.00,0,Wunderground v.1.15,2013-02-04 11:45:00,
2013-02-04 03:50:00,42.6,41.8,30.20,NNE,28,0.0,1.0,97,0.00,,,0.00,0,Wunderground v.1.15,2013-02-04 11:50:00,
2013-02-04 03:55:00,42.6,41.8,30.19,NNE,28,1.0,3.0,97,0.00,,,0.00,0,Wunderground v.1.15,2013-02-04 11:55:00,
2013-02-04 04:00:00,42.8,42.0,30.19,NE,50,2.0,2.0,97,0.00,,,0.00,0,Wunderground v.1.15,2013-02-04 12:00:00,
2013-02-04 04:05:00,42.6,41.8,30.19,NE,50,2.0,2.0,97,0.00,,,0.00,0,Wunderground v.1.15,2013-02-04 12:05:00,
2013-02-04 04:11:00,42.8,42.0,30.19,NE,50,2.0,2.0,97,0.00,,,0.00,0,Wunderground v.1.15,2013-02-04 12:11:00,
2013-02-04 04:16:00,42.6,41.8,30.19,NE,50,1.0,2.0,97,0.00,,,0.00,0,Wunderground v.1.15,2013-02-04 12:16:00,
2013-02-04 04:21:00,42.6,41.8,30.19,NE,50,0.0,1.0,97,0.00,,,0.00,0,Wunderground v.1.15,2013-02-04 12:21:00,
2013-02-04 04:26:00,42.6,41.8,30.19,NE,50,0.0,1.0,97,0.00,,,0.00,0,Wunderground v.1.15,2013-02-04 12:26:00,
2013-02-04 04:32:00,42.6,41.8,30.19,NE,50,0.0,1.0,97,0.00,,,0.00,0,Wunderground v.1.15,2013-02-04 12:32:00,
2013-02-04 04:37:00,42.6,41.8,30.19,NE,50,0.0,1.0,97,0.00,,,0.00,0,Wunderground v.1.15,2013-02-04 12:37:00,
2013-02-04 04:42:00,42.6,41.8,30.18,NE,50,0.0,0.0,97,0.00,,,0.00,0,Wunderground v.1.15,2013-02-04 12:42:00,
2013-02-04 04:47:00,42.8,42.0,30.18,NE,50,0.0,0.0,97,0.00,,,0.00,0,Wunderground v.1.15,2013-02-04 12:47:00,
2013-02-04 04:52:00,42.8,42.0,30.18,NE,50,0.0,0.0,97,0.00,,,0.00,0,Wunderground v.1.15,2013-02-04 12:52:00,
2013-02-04 04:58:00,42.8,42.0,30.18,NE,50,0.0,0.0,97,0.00,,,0.00,0,Wunderground v.1.15,2013-02-04 12:58:00,
2013-02-04 05:03:00,42.8,42.0,30.18,NE,50,0.0,3.0,97,0.00,,,0.00,0,Wunderground v.1.15,2013-02-04 13:03:00,
2013-02-04 05:08:00,42.8,42.0,30.18,NE,50,0.0,3.0,97,0.00,,,0.00,0,Wunderground v.1.15,2013-02-04 13:08:00,
2013-02-04 05:13:00,42.8,42.0,30.18,NE,50,0.0,0.0,97,0.00,,,0.00,0,Wunderground v.1.15,2013-02-04 13:13:00,
2013-02-04 05:18:00,42.8,42.0,30.18,NE,50,0.0,0.0,97,0.00,,,0.00,0,Wunderground v.1.15,2013-02-04 13:18:00,
2013-02-04 05:24:00,42.8,42.0,30.18,NE,50,0.0,0.0,97,0.00,,,0.00,0,Wunderground v.1.15,2013-02-04 13:24:00,
2013-02-04 05:29:00,42.6,41.8,30.17,NE,50,0.0,0.0,97,0.00,,,0.00,0,Wunderground v.1.15,2013-02-04 13:29:00,
2013-02-04 05:34:00,42.6,41.8,30.17,NE,50,0.0,0.0,97,0.00,,,0.00,0,Wunderground v.1.15,2013-02-04 13:34:00,
2013-02-04 05:39:00,42.6,41.8,30.17,NE,50,0.0,0.0,97,0.00,,,0.00,0,Wunderground v.1.15,2013-02-04 13:39:00,
2013-02-04 05:44:00,42.6,41.8,30.17,NE,50,0.0,0.0,97,0.00,,,0.00,0,Wunderground v.1.15,2013-02-04 13:44:00,
2013-02-04 05:50:00,42.6,41.8,30.18,NE,50,0.0,0.0,97,0.00,,,0.00,0,Wunderground v.1.15,2013-02-04 13:50:00,
2013-02-04 05:55:00,42.6,41.8,30.17,NE,50,0.0,0.0,97,0.00,,,0.00,0,Wunderground v.1.15,2013-02-04 13:55:00,
2013-02-04 06:00:00,42.6,41.8,30.17,NE,50,0.0,0.0,97,0.00,,,0.00,0,Wunderground v.1.15,2013-02-04 14:00:00,
2013-02-04 06:05:00,42.6,41.8,30.16,NE,50,0.0,0.0,97,0.00,,,0.00,0,Wunderground v.1.15,2013-02-04 14:05:00,
2013-02-04 06:11:00,42.5,41.7,30.16,NE,50,0.0,0.0,97,0.00,,,0.00,0,Wunderground v.1.15,2013-02-04 14:11:00,
2013-02-04 06:16:00,42.3,41.5,30.16,NE,50,0.0,0.0,97,0.00,,,0.00,0,Wunderground v.1.15,2013-02-04 14:16:00,
2013-02-04 06:21:00,42.3,41.5,30.17,NE,50,0.0,0.0,97,0.00,,,0.00,0,Wunderground v.1.15,2013-02-04 14:21:00,
2013-02-04 06:26:00,42.3,41.5,30.17,NE,50,0.0,1.0,97,0.00,,,0.00,0,Wunderground v.1.15,2013-02-04 14:26:00,
2013-02-04 06:31:00,42.3,41.5,30.16,NE,50,0.0,0.0,97,0.00,,,0.00,0,Wunderground v.1.15,2013-02-04 14:31:00,
2013-02-04 06:36:00,42.3,41.5,30.17,NE,50,0.0,1.0,97,0.00,,,0.00,0,Wunderground v.1.15,2013-02-04 14:36:00,
2013-02-04 06:42:00,42.3,41.8,30.17,NE,50,0.0,1.0,98,0.00,,,0.00,0,Wunderground v.1.15,2013-02-04 14:42:00,
2013-02-04 06:47:00,42.3,41.5,30.16,NE,50,0.0,1.0,97,0.00,,,0.00,0,Wunderground v.1.15,2013-02-04 14:47:00,
2013-02-04 06:52:00,42.3,41.8,30.16,NE,50,0.0,0.0,98,0.00,,,0.00,0,Wunderground v.1.15,2013-02-04 14:52:00,
2013-02-04 06:57:00,42.2,41.4,30.16,NE,50,0.0,0.0,97,0.00,,,0.00,0,Wunderground v.1.15,2013-02-04 14:57:00,
2013-02-04 07:02:00,42.2,41.7,30.17,NE,50,0.0,1.0,98,0.00,,,0.00,0,Wunderground v.1.15,2013-02-04 15:02:00,
2013-02-04 07:08:00,42.2,41.7,30.17,NE,50,0.0,1.0,98,0.00,,,0.00,0,Wunderground v.1.15,2013-02-04 15:08:00,
2013-02-04 07:13:00,42.2,41.7,30.17,NE,50,0.0,0.0,98,0.00,,,0.00,0,Wunderground v.1.15,2013-02-04 15:13:00,
2013-02-04 07:18:00,42.3,41.8,30.17,NE,50,0.0,0.0,98,0.00,,,0.00,0,Wunderground v.1.15,2013-02-04 15:18:00,
2013-02-04 07:23:00,42.3,41.8,30.17,NE,50,0.0,0.0,98,0.00,,,0.00,0,Wunderground v.1.15,2013-02-04 15:23:00,
2013-02-04 07:28:00,42.3,41.8,30.17,NE,50,0.0,0.0,98,0.00,,,0.00,0,Wunderground v.1.15,2013-02-04 15:28:00,
2013-02-04 07:34:00,42.3,41.8,30.16,NE,50,0.0,2.0,98,0.00,,,0.00,0,Wunderground v.1.15,2013-02-04 15:34:00,
2013-02-04 07:39:00,42.3,41.8,30.16,NE,50,0.0,2.0,98,0.00,,,0.00,7,Wunderground v.1.15,2013-02-04 15:39:00,
2013-02-04 07:44:00,42.3,41.8,30.16,NE,50,0.0,1.0,98,0.00,,,0.00,11,Wunderground v.1.15,2013-02-04 15:44:00,
2013-02-04 07:49:00,42.2,41.7,30.17,NE,50,1.0,2.0,98,0.00,,,0.00,12,Wunderground v.1.15,2013-02-04 15:49:00,
2013-02-04 07:54:00,42.2,41.7,30.16,NE,50,1.0,1.0,98,0.00,,,0.00,14,Wunderground v.1.15,2013-02-04 15:54:00,
2013-02-04 08:00:00,42.2,41.7,30.16,NE,50,1.0,2.0,98,0.00,,,0.00,21,Wunderground v.1.15,2013-02-04 16:00:00,
2013-02-04 08:05:00,42.2,41.7,30.16,NE,50,1.0,2.0,98,0.00,,,0.00,28,Wunderground v.1.15,2013-02-04 16:05:00,
2013-02-04 08:11:00,42.3,41.8,30.16,NE,50,1.0,1.0,98,0.00,,,0.00,33,Wunderground v.1.15,2013-02-04 16:11:00,
2013-02-04 08:17:00,42.3,41.8,30.17,NE,50,1.0,2.0,98,0.00,,,0.00,37,Wunderground v.1.15,2013-02-04 16:17:00,
2013-02-04 08:22:00,42.3,41.8,30.17,NE,50,1.0,1.0,98,0.00,,,0.00,35,Wunderground v.1.15,2013-02-04 16:22:00,
2013-02-04 08:27:00,42.3,41.8,30.17,NE,50,0.0,1.0,98,0.00,,,0.00,39,Wunderground v.1.15,2013-02-04 16:27:00,
2013-02-04 08:32:00,42.5,42.0,30.17,NE,50,0.0,1.0,98,0.00,,,0.00,42,Wunderground v.1.15,2013-02-04 16:32:00,
2013-02-04 08:37:00,42.6,42.1,30.17,NE,50,0.0,1.0,98,0.00,,,0.00,40,Wunderground v.1.15,2013-02-04 16:37:00,
2013-02-04 08:42:00,42.6,42.1,30.17,NE,50,0.0,1.0,98,0.00,,,0.00,53,Wunderground v.1.15,2013-02-04 16:42:00,
2013-02-04 08:47:00,42.8,42.3,30.17,NE,50,0.0,2.0,98,0.00,,,0.00,65,Wunderground v.1.15,2013-02-04 16:47:00,
2013-02-04 08:52:00,42.9,42.4,30.17,NE,50,1.0,2.0,98,0.00,,,0.00,72,Wunderground v.1.15,2013-02-04 16:52:00,
2013-02-04 08:57:00,43.1,42.6,30.16,NE,50,1.0,2.0,98,0.00,,,0.00,70,Wunderground v.1.15,2013-02-04 16:57:00,
2013-02-04 09:02:00,43.2,42.4,30.16,NE,50,1.0,2.0,97,0.00,,,0.00,77,Wunderground v.1.15,2013-02-04 17:02:00,
2013-02-04 09:08:00,43.3,42.5,30.16,NE,50,1.0,2.0,97,0.00,,,0.00,72,Wunderground v.1.15,2013-02-04 17:08:00,
2013-02-04 09:13:00,43.3,42.5,30.16,NE,50,1.0,2.0,97,0.00,,,0.00,77,Wunderground v.1.15,2013-02-04 17:13:00,
2013-02-04 09:18:00,43.5,42.7,30.17,NE,50,1.0,2.0,97,0.00,,,0.00,79,Wunderground v.1.15,2013-02-04 17:18:00,
2013-02-04 09:23:00,43.8,43.0,30.17,NE,50,0.0,0.0,97,0.00,,,0.00,91,Wunderground v.1.15,2013-02-04 17:23:00,
2013-02-04 09:28:00,43.9,43.1,30.16,NE,50,0.0,0.0,97,0.00,,,0.00,98,Wunderground v.1.15,2013-02-04 17:28:00,
2013-02-04 09:33:00,44.1,43.3,30.16,NE,50,0.0,1.0,97,0.00,,,0.00,104,Wunderground v.1.15,2013-02-04 17:33:00,
2013-02-04 09:39:00,44.3,43.2,30.16,NE,50,0.0,1.0,96,0.00,,,0.00,121,Wunderground v.1.15,2013-02-04 17:39:00,
2013-02-04 09:44:00,44.5,43.4,30.15,NE,50,0.0,1.0,96,0.00,,,0.00,121,Wunderground v.1.15,2013-02-04 17:44:00,
2013-02-04 09:49:00,44.8,43.7,30.15,NE,50,0.0,1.0,96,0.00,,,0.00,149,Wunderground v.1.15,2013-02-04 17:49:00,
2013-02-04 09:54:00,45.1,43.8,30.15,NE,50,0.0,0.0,95,0.00,,,0.00,162,Wunderground v.1.15,2013-02-04 17:54:00,
2013-02-04 09:59:00,45.4,44.1,30.15,NE,50,0.0,0.0,95,0.00,,,0.00,160,Wunderground v.1.15,2013-02-04 17:59:00,
2013-02-04 10:05:00,45.7,43.8,30.15,NE,50,0.0,2.0,93,0.00,,,0.00,149,Wunderground v.1.15,2013-02-04 18:05:00,
2013-02-04 10:11:00,46.0,43.8,30.15,NE,51,0.0,0.0,92,0.00,,,0.00,156,Wunderground v.1.15,2013-02-04 18:11:00,
2013-02-04 10:16:00,46.1,43.6,30.15,NE,51,0.0,0.0,91,0.00,,,0.00,165,Wunderground v.1.15,2013-02-04 18:16:00,
2013-02-04 10:21:00,46.5,44.0,30.15,NE,51,0.0,0.0,91,0.00,,,0.00,171,Wunderground v.1.15,2013-02-04 18:21:00,
2013-02-04 10:27:00,46.8,44.0,30.14,NE,51,0.0,0.0,90,0.00,,,0.00,192,Wunderground v.1.15,2013-02-04 18:27:00,
2013-02-04 10:32:00,47.1,44.0,30.14,NE,51,0.0,0.0,89,0.00,,,0.00,207,Wunderground v.1.15,2013-02-04 18:32:00,
2013-02-04 10:37:00,47.4,44.0,30.14,NE,51,0.0,0.0,88,0.00,,,0.00,223,Wunderground v.1.15,2013-02-04 18:37:00,
2013-02-04 10:42:00,47.9,44.2,30.14,NE,51,0.0,0.0,87,0.00,,,0.00,230,Wunderground v.1.15,2013-02-04 18:42:00,
2013-02-04 10:47:00,48.0,44.0,30.14,NE,51,0.0,0.0,86,0.00,,,0.00,232,Wunderground v.1.15,2013-02-04 18:47:00,
2013-02-04 10:53:00,48.3,44.0,30.14,NE,51,0.0,0.0,85,0.00,,,0.00,227,Wunderground v.1.15,2013-02-04 18:53:00,
2013-02-04 10:58:00,48.5,43.9,30.14,NE,51,0.0,1.0,84,0.00,,,0.00,248,Wunderground v.1.15,2013-02-04 18:58:00,
2013-02-04 11:03:00,48.5,43.9,30.14,SSW,204,0.0,1.0,84,0.00,,,0.00,257,Wunderground v.1.15,2013-02-04 19:03:00,
2013-02-04 11:08:00,48.6,44.0,30.13,SSW,204,1.0,1.0,84,0.00,,,0.00,244,Wunderground v.1.15,2013-02-04 19:08:00,
2013-02-04 11:13:00,48.9,44.0,30.13,SSW,204,0.0,1.0,83,0.00,,,0.00,338,Wunderground v.1.15,2013-02-04 19:13:00,
2013-02-04 11:18:00,49.2,43.9,30.13,SSW,204,0.0,1.0,82,0.00,,,0.00,269,Wunderground v.1.15,2013-02-04 19:18:00,
2013-02-04 11:23:00,49.5,44.2,30.13,SSW,204,0.0,0.0,82,0.00,,,0.00,236,Wunderground v.1.15,2013-02-04 19:23:00,
2013-02-04 11:28:00,49.8,44.2,30.13,SSW,204,0.0,1.0,81,0.00,,,0.00,230,Wunderground v.1.15,2013-02-04 19:28:00,
2013-02-04 11:33:00,50.1,44.5,30.13,SSW,204,0.0,1.0,81,0.00,,,0.00,234,Wunderground v.1.15,2013-02-04 19:33:00,
2013-02-04 11:38:00,50.2,43.6,30.12,SSW,204,0.0,2.0,78,0.00,,,0.00,230,Wunderground v.1.15,2013-02-04 19:38:00,
2013-02-04 11:43:00,50.2,43.9,30.12,SSW,204,0.0,1.0,79,0.00,,,0.00,223,Wunderground v.1.15,2013-02-04 19:43:00,
2013-02-04 11:49:00,50.7,43.8,30.12,WNW,288,0.0,1.0,77,0.00,,,0.00,241,Wunderground v.1.15,2013-02-04 19:49:00,
2013-02-04 11:54:00,50.8,43.8,30.12,WNW,288,1.0,1.0,77,0.00,,,0.00,292,Wunderground v.1.15,2013-02-04 19:54:00,
2013-02-04 11:59:00,50.7,43.8,30.11,WNW,288,1.0,3.0,77,0.00,,,0.00,316,Wunderground v.1.15,2013-02-04 19:59:00,
2013-02-04 12:04:00,50.8,43.8,30.11,WNW,292,1.0,2.0,77,0.00,,,0.00,311,Wunderground v.1.15,2013-02-04 20:04:00,
2013-02-04 12:09:00,51.1,43.8,30.10,WNW,290,1.0,3.0,76,0.00,,,0.00,315,Wunderground v.1.15,2013-02-04 20:09:00,
2013-02-04 12:15:00,51.6,43.9,30.10,WNW,290,1.0,1.0,75,0.00,,,0.00,265,Wunderground v.1.15,2013-02-04 20:15:00,
2013-02-04 12:20:00,51.6,43.6,30.10,WNW,290,0.0,0.0,74,0.00,,,0.00,258,Wunderground v.1.15,2013-02-04 20:20:00,
2013-02-04 12:25:00,51.9,43.2,30.09,WNW,290,0.0,0.0,72,0.00,,,0.00,330,Wunderground v.1.15,2013-02-04 20:25:00,
2013-02-04 12:30:00,52.0,43.3,30.09,WNW,290,0.0,0.0,72,0.00,,,0.00,299,Wunderground v.1.15,2013-02-04 20:30:00,
2013-02-04 12:35:00,51.7,43.0,30.09,SSW,203,0.0,1.0,72,0.00,,,0.00,438,Wunderground v.1.15,2013-02-04 20:35:00,
2013-02-04 12:40:00,52.3,42.8,30.09,West,266,0.0,0.0,70,0.00,,,0.00,279,Wunderground v.1.15,2013-02-04 20:40:00,
2013-02-04 12:45:00,52.8,42.5,30.08,West,266,0.0,0.0,68,0.00,,,0.00,332,Wunderground v.1.15,2013-02-04 20:45:00,
2013-02-04 12:50:00,53.1,42.8,30.08,SE,141,0.0,0.0,68,0.00,,,0.00,346,Wunderground v.1.15,2013-02-04 20:50:00,
2013-02-04 12:55:00,52.8,42.1,30.08,SE,141,0.0,1.0,67,0.00,,,0.00,214,Wunderground v.1.15,2013-02-04 20:55:00,
2013-02-04 13:00:00,52.9,41.8,30.08,SE,142,0.0,0.0,66,0.00,,,0.00,297,Wunderground v.1.15,2013-02-04 21:00:00,
2013-02-04 13:05:00,52.6,42.3,30.07,SE,142,1.0,4.0,68,0.00,,,0.00,253,Wunderground v.1.15,2013-02-04 21:05:00,
2013-02-04 13:11:00,52.6,42.3,30.07,SE,142,1.0,1.0,68,0.00,,,0.00,330,Wunderground v.1.15,2013-02-04 21:11:00,
2013-02-04 13:16:00,53.1,42.4,30.07,SE,142,0.0,1.0,67,0.00,,,0.00,364,Wunderground v.1.15,2013-02-04 21:16:00,
2013-02-04 13:21:00,53.1,42.4,30.06,SE,142,0.0,2.0,67,0.00,,,0.00,329,Wunderground v.1.15,2013-02-04 21:21:00,
2013-02-04 13:26:00,52.5,42.6,30.06,ENE,58,1.0,2.0,69,0.00,,,0.00,295,Wunderground v.1.15,2013-02-04 21:26:00,
2013-02-04 13:31:00,52.0,42.5,30.06,ENE,59,1.0,1.0,70,0.00,,,0.00,225,Wunderground v.1.15,2013-02-04 21:31:00,
2013-02-04 13:36:00,51.9,42.4,30.05,ENE,59,1.0,1.0,70,0.00,,,0.00,197,Wunderground v.1.15,2013-02-04 21:36:00,
2013-02-04 13:42:00,51.9,42.4,30.05,WSW,240,1.0,4.0,70,0.00,,,0.00,181,Wunderground v.1.15,2013-02-04 21:42:00,
2013-02-04 13:47:00,51.9,42.8,30.05,WSW,240,1.0,4.0,71,0.00,,,0.00,195,Wunderground v.1.15,2013-02-04 21:47:00,
2013-02-04 13:52:00,51.7,42.6,30.04,WSW,244,1.0,3.0,71,0.00,,,0.00,163,Wunderground v.1.15,2013-02-04 21:52:00,
2013-02-04 13:57:00,51.6,42.5,30.04,SW,232,2.0,4.0,71,0.00,,,0.00,148,Wunderground v.1.15,2013-02-04 21:57:00,
2013-02-04 14:02:00,51.3,42.2,30.04,SW,232,2.0,3.0,71,0.00,,,0.00,155,Wunderground v.1.15,2013-02-04 22:02:00,
2013-02-04 14:08:00,51.4,42.3,30.04,West,266,2.0,4.0,71,0.00,,,0.00,146,Wunderground v.1.15,2013-02-04 22:08:00,
2013-02-04 14:13:00,51.3,42.2,30.04,WSW,242,2.0,3.0,71,0.00,,,0.00,135,Wunderground v.1.15,2013-02-04 22:13:00,
2013-02-04 14:18:00,51.3,42.2,30.03,SW,234,2.0,3.0,71,0.00,,,0.00,118,Wunderground v.1.15,2013-02-04 22:18:00,
2013-02-04 14:23:00,51.3,42.6,30.03,SW,234,1.0,2.0,72,0.00,,,0.00,114,Wunderground v.1.15,2013-02-04 22:23:00,
2013-02-04 14:28:00,51.4,42.3,30.03,WSW,240,1.0,3.0,71,0.00,,,0.00,128,Wunderground v.1.15,2013-02-04 22:28:00,
2013-02-04 14:34:00,51.6,42.5,30.02,SW,225,2.0,5.0,71,0.00,,,0.00,207,Wunderground v.1.15,2013-02-04 22:34:00,
2013-02-04 14:39:00,51.7,42.6,30.02,SW,225,1.0,5.0,71,0.00,,,0.00,197,Wunderground v.1.15,2013-02-04 22:39:00,
2013-02-04 14:44:00,52.0,42.9,30.02,SW,225,1.0,3.0,71,0.00,,,0.00,171,Wunderground v.1.15,2013-02-04 22:44:00,
2013-02-04 14:49:00,51.9,42.8,30.01,SW,225,1.0,3.0,71,0.00,,,0.00,155,Wunderground v.1.15,2013-02-04 22:49:00,
2013-02-04 14:54:00,52.0,43.3,30.01,SW,225,1.0,2.0,72,0.00,,,0.00,171,Wunderground v.1.15,2013-02-04 22:54:00,
2013-02-04 15:00:00,52.3,43.2,30.01,SW,225,0.0,0.0,71,0.00,,,0.00,111,Wunderground v.1.15,2013-02-04 23:00:00,
2013-02-04 15:05:00,52.5,43.7,30.01,SW,225,1.0,3.0,72,0.00,,,0.00,137,Wunderground v.1.15,2013-02-04 23:05:00,
2013-02-04 15:11:00,52.3,43.5,30.01,SW,225,0.0,0.0,72,0.00,,,0.00,125,Wunderground v.1.15,2013-02-04 23:11:00,
2013-02-04 15:17:00,52.2,43.4,30.01,SW,225,0.0,1.0,72,0.00,,,0.00,107,Wunderground v.1.15,2013-02-04 23:17:00,
2013-02-04 15:22:00,52.0,43.6,30.01,SW,225,0.0,3.0,73,0.00,,,0.00,97,Wunderground v.1.15,2013-02-04 23:22:00,
2013-02-04 15:27:00,51.7,43.7,30.01,SW,225,1.0,3.0,74,0.00,,,0.00,107,Wunderground v.1.15,2013-02-04 23:27:00,
2013-02-04 15:32:00,51.6,43.9,30.01,SW,225,2.0,2.0,75,0.00,,,0.00,100,Wunderground v.1.15,2013-02-04 23:32:00,
2013-02-04 15:37:00,51.7,44.0,30.01,SW,225,1.0,2.0,75,0.00,,,0.00,91,Wunderground v.1.15,2013-02-04 23:37:00,
2013-02-04 15:43:00,51.7,44.0,30.01,SW,225,1.0,1.0,75,0.00,,,0.00,97,Wunderground v.1.15,2013-02-04 23:43:00,
2013-02-04 15:48:00,52.0,44.0,30.01,SW,225,1.0,1.0,74,0.00,,,0.00,93,Wunderground v.1.15,2013-02-04 23:48:00,
2013-02-04 15:53:00,51.9,43.9,30.01,SW,225,1.0,2.0,74,0.00,,,0.00,74,Wunderground v.1.15,2013-02-04 23:53:00,
2013-02-04 15:58:00,51.9,43.9,30.01,SW,225,1.0,2.0,74,0.00,,,0.00,65,Wunderground v.1.15,2013-02-04 23:58:00,
2013-02-04 16:04:00,51.7,43.7,30.01,SW,225,1.0,2.0,74,0.00,,,0.00,62,Wunderground v.1.15,2013-02-05 00:04:00,
2013-02-04 16:09:00,51.7,44.0,30.01,SW,225,1.0,2.0,75,0.00,,,0.00,56,Wunderground v.1.15,2013-02-05 00:09:00,
2013-02-04 16:14:00,51.4,43.7,30.02,SW,225,1.0,3.0,75,0.00,,,0.00,51,Wunderground v.1.15,2013-02-05 00:14:00,
2013-02-04 16:19:00,51.4,44.1,30.02,SW,225,1.0,3.0,76,0.00,,,0.00,42,Wunderground v.1.15,2013-02-05 00:19:00,
2013-02-04 16:24:00,51.3,44.0,30.02,SW,225,0.0,1.0,76,0.00,,,0.00,33,Wunderground v.1.15,2013-02-05 00:24:00,
2013-02-04 16:29:00,51.3,44.0,30.02,SW,225,0.0,1.0,76,0.00,,,0.00,28,Wunderground v.1.15,2013-02-05 00:29:00,
2013-02-04 16:34:00,51.3,44.3,30.01,SW,225,0.0,0.0,77,0.00,,,0.00,25,Wunderground v.1.15,2013-02-05 00:34:00,
2013-02-04 16:40:00,51.0,44.0,30.01,SW,225,0.0,0.0,77,0.00,,,0.00,16,Wunderground v.1.15,2013-02-05 00:40:00,
2013-02-04 16:45:00,50.8,44.2,30.01,SW,225,0.0,0.0,78,0.00,,,0.00,11,Wunderground v.1.15,2013-02-05 00:45:00,
2013-02-04 16:50:00,50.7,44.4,30.00,SW,225,0.0,0.0,79,0.00,,,0.00,11,Wunderground v.1.15,2013-02-05 00:50:00,
2013-02-04 16:56:00,50.7,44.4,30.00,SW,225,0.0,0.0,79,0.00,,,0.00,7,Wunderground v.1.15,2013-02-05 00:56:00,
2013-02-04 17:01:00,50.5,44.6,30.00,SW,225,0.0,2.0,80,0.00,,,0.00,5,Wunderground v.1.15,2013-02-05 01:01:00,
2013-02-04 17:06:00,50.2,44.3,30.00,SW,225,0.0,2.0,80,0.00,,,0.00,0,Wunderground v.1.15,2013-02-05 01:06:00,
2013-02-04 17:11:00,50.1,44.5,30.00,SW,225,0.0,0.0,81,0.00,,,0.00,0,Wunderground v.1.15,2013-02-05 01:11:00,
2013-02-04 17:17:00,49.8,44.5,29.99,SW,225,0.0,0.0,82,0.00,,,0.00,0,Wunderground v.1.15,2013-02-05 01:17:00,
2013-02-04 17:22:00,49.6,44.3,29.99,SW,225,0.0,0.0,82,0.00,,,0.00,0,Wunderground v.1.15,2013-02-05 01:22:00,
2013-02-04 17:27:00,49.5,44.6,30.00,SW,225,0.0,0.0,83,0.00,,,0.00,0,Wunderground v.1.15,2013-02-05 01:27:00,
2013-02-04 17:33:00,49.4,44.5,30.01,SW,225,0.0,2.0,83,0.00,,,0.00,0,Wunderground v.1.15,2013-02-05 01:33:00,
2013-02-04 17:38:00,49.4,44.5,30.01,SW,225,0.0,2.0,83,0.00,,,0.00,0,Wunderground v.1.15,2013-02-05 01:38:00,
2013-02-04 17:43:00,49.2,44.3,30.01,SW,225,0.0,0.0,83,0.00,,,0.00,0,Wunderground v.1.15,2013-02-05 01:43:00,
2013-02-04 17:48:00,49.2,44.6,30.00,East,101,0.0,1.0,84,0.00,,,0.00,0,Wunderground v.1.15,2013-02-05 01:48:00,
2013-02-04 17:53:00,48.9,44.6,29.99,East,101,0.0,0.0,85,0.00,,,0.00,0,Wunderground v.1.15,2013-02-05 01:53:00,
2013-02-04 17:58:00,48.8,44.5,29.98,ENE,64,1.0,3.0,85,0.00,,,0.00,0,Wunderground v.1.15,2013-02-05 01:58:00,
2013-02-04 18:03:00,48.5,44.5,29.97,ENE,60,1.0,2.0,86,0.00,,,0.00,0,Wunderground v.1.15,2013-02-05 02:03:00,
2013-02-04 18:08:00,48.3,44.6,29.96,ENE,60,1.0,2.0,87,0.00,,,0.00,0,Wunderground v.1.15,2013-02-05 02:08:00,
2013-02-04 18:13:00,48.0,44.3,29.96,ENE,76,1.0,2.0,87,0.00,,,0.00,0,Wunderground v.1.15,2013-02-05 02:13:00,
2013-02-04 18:18:00,47.9,44.5,29.95,ENE,76,1.0,2.0,88,0.00,,,0.00,0,Wunderground v.1.15,2013-02-05 02:18:00,
2013-02-04 18:24:00,47.4,44.3,29.95,ENE,76,0.0,0.0,89,0.00,,,0.00,0,Wunderground v.1.15,2013-02-05 02:24:00,
2013-02-04 18:29:00,47.3,44.2,29.94,ENE,76,0.0,0.0,89,0.00,,,0.00,0,Wunderground v.1.15,2013-02-05 02:29:00,
2013-02-04 18:34:00,47.1,44.0,29.95,South,183,0.0,0.0,89,0.00,,,0.00,0,Wunderground v.1.15,2013-02-05 02:34:00,
2013-02-04 18:39:00,47.0,43.9,29.94,South,183,0.0,0.0,89,0.00,,,0.00,0,Wunderground v.1.15,2013-02-05 02:39:00,
2013-02-04 18:44:00,47.1,44.0,29.94,South,183,0.0,0.0,89,0.00,,,0.00,0,Wunderground v.1.15,2013-02-05 02:44:00,
2013-02-04 18:50:00,47.3,44.2,29.93,South,183,0.0,0.0,89,0.00,,,0.00,0,Wunderground v.1.15,2013-02-05 02:50:00,
2013-02-04 18:55:00,47.3,43.9,29.92,East,94,0.0,1.0,88,0.00,,,0.00,0,Wunderground v.1.15,2013-02-05 02:55:00,
2013-02-04 19:00:00,47.1,44.0,29.92,East,94,0.0,0.0,89,0.00,,,0.00,0,Wunderground v.1.15,2013-02-05 03:00:00,
2013-02-04 19:05:00,47.1,44.0,29.91,East,94,0.0,4.0,89,0.00,,,0.00,0,Wunderground v.1.15,2013-02-05 03:05:00,
2013-02-04 19:11:00,47.1,44.0,29.91,East,94,0.0,0.0,89,0.00,,,0.00,0,Wunderground v.1.15,2013-02-05 03:11:00,
2013-02-04 19:16:00,47.1,44.0,29.92,North,355,0.0,2.0,89,0.00,,,0.00,0,Wunderground v.1.15,2013-02-05 03:16:00,
2013-02-04 19:21:00,47.1,44.0,29.92,West,261,1.0,2.0,89,0.00,,,0.00,0,Wunderground v.1.15,2013-02-05 03:21:00,
2013-02-04 19:26:00,47.0,43.9,29.92,West,261,1.0,2.0,89,0.00,,,0.00,0,Wunderground v.1.15,2013-02-05 03:26:00,
2013-02-04 19:31:00,47.0,43.9,29.91,West,270,1.0,2.0,89,0.00,,,0.00,0,Wunderground v.1.15,2013-02-05 03:31:00,
2013-02-04 19:36:00,46.8,43.7,29.92,West,270,1.0,2.0,89,0.00,,,0.00,0,Wunderground v.1.15,2013-02-05 03:36:00,
2013-02-04 19:42:00,46.7,43.6,29.92,West,270,1.0,2.0,89,0.00,,,0.00,0,Wunderground v.1.15,2013-02-05 03:42:00,
2013-02-04 19:47:00,46.5,43.7,29.92,West,259,1.0,2.0,90,0.00,,,0.00,0,Wunderground v.1.15,2013-02-05 03:47:00,
2013-02-04 19:52:00,46.5,43.4,29.93,West,270,2.0,4.0,89,0.00,,,0.00,0,Wunderground v.1.15,2013-02-05 03:52:00,
2013-02-04 19:57:00,46.5,43.4,29.93,West,272,2.0,4.0,89,0.00,,,0.00,0,Wunderground v.1.15,2013-02-05 03:57:00,
2013-02-04 20:02:00,46.7,43.3,29.93,West,263,3.0,3.0,88,0.00,,,0.00,0,Wunderground v.1.15,2013-02-05 04:02:00,
2013-02-04 20:07:00,47.0,43.0,29.93,SW,223,3.0,4.0,86,0.00,,,0.00,0,Wunderground v.1.15,2013-02-05 04:07:00,
2013-02-04 20:12:00,47.1,42.8,29.93,NW,325,2.0,2.0,85,0.00,,,0.00,0,Wunderground v.1.15,2013-02-05 04:12:00,
2013-02-04 20:17:00,47.6,42.4,29.92,West,264,2.0,6.0,82,0.00,,,0.00,0,Wunderground v.1.15,2013-02-05 04:17:00,
2013-02-04 20:22:00,47.9,42.3,29.92,SW,236,2.0,3.0,81,0.00,,,0.00,0,Wunderground v.1.15,2013-02-05 04:22:00,
2013-02-04 20:27:00,47.9,42.3,29.92,SW,216,2.0,4.0,81,0.00,,,0.00,0,Wunderground v.1.15,2013-02-05 04:27:00,
2013-02-04 20:32:00,48.0,42.4,29.92,SW,230,2.0,3.0,81,0.00,,,0.00,0,Wunderground v.1.15,2013-02-05 04:32:00,
2013-02-04 20:37:00,47.9,42.3,29.92,WSW,237,2.0,3.0,81,0.00,,,0.00,0,Wunderground v.1.15,2013-02-05 04:37:00,
2013-02-04 20:42:00,47.7,42.5,29.92,WSW,237,1.0,1.0,82,0.00,,,0.00,0,Wunderground v.1.15,2013-02-05 04:42:00,
2013-02-04 20:47:00,47.7,42.5,29.91,WSW,237,0.0,1.0,82,0.00,,,0.00,0,Wunderground v.1.15,2013-02-05 04:47:00,
2013-02-04 20:52:00,47.6,42.4,29.91,WSW,237,0.0,0.0,82,0.00,,,0.00,0,Wunderground v.1.15,2013-02-05 04:52:00,
2013-02-04 20:57:00,47.6,42.4,29.92,SW,227,1.0,3.0,82,0.00,,,0.00,0,Wunderground v.1.15,2013-02-05 04:57:00,
2013-02-04 21:00:00,47.4,42.2,29.92,SW,236,1.0,2.0,82,0.00,,,0.00,0,Wunderground v.1.15,2013-02-05 05:00:00,
2013-02-04 21:01:00,47.4,42.2,29.92,SW,236,1.0,5.0,82,0.00,,,0.00,0,Wunderground v.1.15,2013-02-05 05:01:00,
2013-02-04 21:02:00,47.4,42.2,29.92,WSW,250,1.0,5.0,82,0.00,,,0.00,0,Wunderground v.1.15,2013-02-05 05:02:00,
2013-02-04 21:03:00,47.4,42.5,29.92,WSW,250,2.0,5.0,83,0.00,,,0.00,0,Wunderground v.1.15,2013-02-05 05:03:00,
2013-02-04 21:09:00,47.3,42.4,29.92,WSW,238,1.0,5.0,83,0.00,,,0.00,0,Wunderground v.1.15,2013-02-05 05:09:00,
2013-02-04 21:14:00,47.3,42.4,29.93,WSW,240,1.0,2.0,83,0.00,,,0.00,0,Wunderground v.1.15,2013-02-05 05:14:00,
2013-02-04 21:19:00,47.1,42.2,29.93,WSW,240,1.0,2.0,83,0.00,,,0.00,0,Wunderground v.1.15,2013-02-05 05:19:00,
2013-02-04 21:24:00,47.1,42.2,29.93,WSW,242,1.0,4.0,83,0.00,,,0.00,0,Wunderground v.1.15,2013-02-05 05:24:00,
2013-02-04 21:29:00,47.1,42.2,29.93,SSE,155,1.0,4.0,83,0.00,,,0.00,0,Wunderground v.1.15,2013-02-05 05:29:00,
2013-02-04 21:35:00,47.1,42.5,29.93,SSE,155,1.0,1.0,84,0.00,,,0.00,0,Wunderground v.1.15,2013-02-05 05:35:00,
2013-02-04 21:40:00,47.0,42.4,29.93,SSE,155,0.0,1.0,84,0.00,,,0.00,0,Wunderground v.1.15,2013-02-05 05:40:00,
2013-02-04 21:45:00,46.5,42.2,29.93,SSE,155,0.0,1.0,85,0.00,,,0.00,0,Wunderground v.1.15,2013-02-05 05:45:00,
2013-02-04 21:50:00,46.4,42.1,29.93,SSE,155,0.0,0.0,85,0.00,,,0.00,0,Wunderground v.1.15,2013-02-05 05:50:00,
2013-02-04 21:55:00,46.2,42.2,29.92,SSE,155,0.0,2.0,86,0.00,,,0.00,0,Wunderground v.1.15,2013-02-05 05:55:00,
2013-02-04 22:01:00,46.0,42.0,29.92,SSE,155,1.0,4.0,86,0.00,,,0.00,0,Wunderground v.1.15,2013-02-05 06:01:00,
2013-02-04 22:06:00,45.8,42.2,29.92,SSE,154,1.0,4.0,87,0.00,,,0.00,0,Wunderground v.1.15,2013-02-05 06:06:00,
2013-02-04 22:11:00,45.8,41.9,29.92,SSE,155,0.0,0.0,86,0.00,,,0.00,0,Wunderground v.1.15,2013-02-05 06:11:00,
2013-02-04 22:16:00,45.8,41.9,29.92,SSE,155,0.0,2.0,86,0.00,,,0.00,0,Wunderground v.1.15,2013-02-05 06:16:00,
2013-02-04 22:21:00,46.0,42.0,29.92,SW,232,1.0,2.0,86,0.00,,,0.00,0,Wunderground v.1.15,2013-02-05 06:21:00,
2013-02-04 22:27:00,46.1,41.8,29.93,SW,232,1.0,3.0,85,0.00,,,0.00,0,Wunderground v.1.15,2013-02-05 06:27:00,
2013-02-04 22:32:00,46.1,41.8,29.93,SW,232,1.0,3.0,85,0.00,,,0.00,0,Wunderground v.1.15,2013-02-05 06:32:00,
2013-02-04 22:37:00,46.0,42.0,29.93,SW,232,1.0,3.0,86,0.00,,,0.00,0,Wunderground v.1.15,2013-02-05 06:37:00,
2013-02-04 22:42:00,45.8,41.9,29.93,West,260,1.0,1.0,86,0.00,,,0.00,0,Wunderground v.1.15,2013-02-05 06:42:00,
2013-02-04 22:47:00,45.7,41.8,29.92,West,260,1.0,1.0,86,0.00,,,0.00,0,Wunderground v.1.15,2013-02-05 06:47:00,
2013-02-04 22:53:00,45.5,41.6,29.92,SSE,157,0.0,1.0,86,0.00,,,0.00,0,Wunderground v.1.15,2013-02-05 06:53:00,
2013-02-04 22:58:00,45.4,41.5,29.92,SSE,158,0.0,1.0,86,0.00,,,0.00,0,Wunderground v.1.15,2013-02-05 06:58:00,
2013-02-04 23:03:00,45.2,41.6,29.92,SSE,158,0.0,2.0,87,0.00,,,0.00,0,Wunderground v.1.15,2013-02-05 07:03:00,
2013-02-04 23:08:00,45.4,41.8,29.92,SSE,167,0.0,2.0,87,0.00,,,0.00,0,Wunderground v.1.15,2013-02-05 07:08:00,
2013-02-04 23:13:00,45.7,41.8,29.92,WSW,252,1.0,6.0,86,0.00,,,0.00,0,Wunderground v.1.15,2013-02-05 07:13:00,
2013-02-04 23:19:00,45.8,41.9,29.92,WSW,248,1.0,6.0,86,0.00,,,0.00,0,Wunderground v.1.15,2013-02-05 07:19:00,
2013-02-04 23:24:00,45.7,41.8,29.92,SW,234,1.0,3.0,86,0.00,,,0.00,0,Wunderground v.1.15,2013-02-05 07:24:00,
2013-02-04 23:29:00,45.7,41.8,29.92,SW,234,1.0,3.0,86,0.00,,,0.00,0,Wunderground v.1.15,2013-02-05 07:29:00,
2013-02-04 23:34:00,45.5,41.6,29.92,SW,234,1.0,1.0,86,0.00,,,0.00,0,Wunderground v.1.15,2013-02-05 07:34:00,
2013-02-04 23:39:00,45.5,41.9,29.92,SW,234,1.0,2.0,87,0.00,,,0.00,0,Wunderground v.1.15,2013-02-05 07:39:00,
2013-02-04 23:45:00,45.5,41.9,29.92,SW,234,1.0,3.0,87,0.00,,,0.00,0,Wunderground v.1.15,2013-02-05 07:45:00,
2013-02-04 23:50:00,45.5,41.9,29.92,SW,234,0.0,0.0,87,0.00,,,0.00,0,Wunderground v.1.15,2013-02-05 07:50:00,
2013-02-04 23:55:00,45.4,41.8,29.92,SW,234,0.0,0.0,87,0.00,,,0.00,0,Wunderground v.1.15,2013-02-05 07:55:00,